CheckWX is a tool to help pilots better visualize weather data.  It is not intended as a substitute for an official pre-flight weather briefing.

13:20:08 UTC

KALB METAR
Albany International Airport
Albany, New York, USA
Current

29 mins ago

KALB 211251Z 00000KT 10SM CLR 16/12 A3026 RMK AO2 SLP247 T01610117
Observed
Sep-21 @ 12:51 UTC
Visibility
10 SM
Flight Rules
VFR
Cloud Levels
  • Clear skies
Temperature
16°C / 61°F
Dewpoint
12°C / 54°F
Humidity
77%
Altimeter
30.26" Hg
Pressure
1024.72 hPa
Previous

1 hour ago

KALB 211151Z 00000KT 10SM BCFG CLR 13/11 A3025 RMK AO2 SLP242 BCFG N T01280106 10133 20100 52013
Observed
Sep-21 @ 11:51 UTC
Visibility
10 SM
Flight Rules
VFR
Conditions
Patches of Fog
Cloud Levels
  • Clear skies
Temperature
13°C / 55°F
Dewpoint
11°C / 52°F
Humidity
88%
Altimeter
30.25" Hg
Pressure
1024.42 hPa
Previous

2 hours ago

KALB 211051Z 00000KT 10SM BCFG CLR 11/09 A3023 RMK AO2 SLP237 BCFG NW-N MIFG SE-S AND NW T01110094
Observed
Sep-21 @ 10:51 UTC
Visibility
10 SM
Flight Rules
VFR
Conditions
Patches of Fog
Cloud Levels
  • Clear skies
Temperature
11°C / 52°F
Dewpoint
C / 48°F
Humidity
88%
Altimeter
30.23" Hg
Pressure
1023.72 hPa